Map

Track Data

SID SEASON NUMBER BASIN SUBBASIN NAME ISO_TIME NATURE LAT LON WMO_WIND WMO_PRES WMO_AGENCY TRACK_TYPE DIST2LAND LANDFALL IFLAG USA_AGENCY USA_ATCF_ID USA_LAT USA_LON USA_RECORD USA_STATUS USA_WIND USA_PRES USA_SSHS USA_R34_NE USA_R34_SE USA_R34_SW USA_R34_NW USA_R50_NE USA_R50_SE USA_R50_SW USA_R50_NW USA_R64_NE USA_R64_SE USA_R64_SW USA_R64_NW USA_POCI USA_ROCI USA_RMW USA_EYE TOKYO_LAT TOKYO_LON TOKYO_GRADE TOKYO_WIND TOKYO_PRES TOKYO_R50_DIR TOKYO_R50_LONG TOKYO_R50_SHORT TOKYO_R30_DIR TOKYO_R30_LONG TOKYO_R30_SHORT TOKYO_LAND CMA_LAT CMA_LON CMA_CAT CMA_WIND CMA_PRES HKO_LAT HKO_LON HKO_CAT HKO_WIND HKO_PRES NEWDELHI_LAT NEWDELHI_LON NEWDELHI_GRADE NEWDELHI_WIND NEWDELHI_PRES NEWDELHI_CI NEWDELHI_DP NEWDELHI_POCI REUNION_LAT REUNION_LON REUNION_TYPE REUNION_WIND REUNION_PRES REUNION_TNUM REUNION_CI REUNION_RMW REUNION_R34_NE REUNION_R34_SE REUNION_R34_SW REUNION_R34_NW REUNION_R50_NE REUNION_R50_SE REUNION_R50_SW REUNION_R50_NW REUNION_R64_NE REUNION_R64_SE REUNION_R64_SW REUNION_R64_NW BOM_LAT BOM_LON BOM_TYPE BOM_WIND BOM_PRES BOM_TNUM BOM_CI BOM_RMW BOM_R34_NE BOM_R34_SE BOM_R34_SW BOM_R34_NW BOM_R50_NE BOM_R50_SE BOM_R50_SW BOM_R50_NW BOM_R64_NE BOM_R64_SE BOM_R64_SW BOM_R64_NW BOM_ROCI BOM_POCI BOM_EYE BOM_POS_METHOD BOM_PRES_METHOD NADI_LAT NADI_LON NADI_CAT NADI_WIND NADI_PRES WELLINGTON_LAT WELLINGTON_LON WELLINGTON_WIND WELLINGTON_PRES DS824_LAT DS824_LON DS824_STAGE DS824_WIND DS824_PRES TD9636_LAT TD9636_LON TD9636_STAGE TD9636_WIND TD9636_PRES TD9635_LAT TD9635_LON TD9635_WIND TD9635_PRES TD9635_ROCI NEUMANN_LAT NEUMANN_LON NEUMANN_CLASS NEUMANN_WIND NEUMANN_PRES MLC_LAT MLC_LON MLC_CLASS MLC_WIND MLC_PRES USA_GUST BOM_GUST BOM_GUST_PER REUNION_GUST REUNION_GUST_PER USA_SEAHGT USA_SEARAD_NE USA_SEARAD_SE USA_SEARAD_SW USA_SEARAD_NW STORM_SPEED STORM_DIR
1977006S11121 1977 2 SI WA IRENE 1977-01-06 00:00:00 TS -11.2000 121.000 30 1000 bom main 114 114 O_____O__OO___ jtwc_sh SH061977 -11.2000 121.000 25 -1 -11.2000 121.000 20 30 1000 2.50000 -11.2000 121.000 TC 30 1000 -11.2000 121.000 1 25 1 199
1977006S11121 1977 2 SI WA IRENE 1977-01-06 03:00:00 TS -11.2375 120.997 30 999 bom main 114 114 P_____O__PP___ SH061977 -11.2375 120.990 27 -1 -11.2000 121.000 20 30 999 2.50000 -11.2375 120.990 TC 32 999 -11.2750 121.014 1 27 1 168
1977006S11121 1977 2 SI WA IRENE 1977-01-06 06:00:00 TS -11.3094 121.012 30 998 bom main 124 124 O_____O__OP_O_ jtwc_sh SH061977 -11.3000 121.000 30 -1 -11.3000 121.000 20 30 998 2.50000 -11.3000 121.000 TC 35 998 -11.3500 121.033 1 30 -11.3000 121.100 TC 35 998 2 156
1977006S11121 1977 2 SI WA IRENE 1977-01-06 09:00:00 TS -11.3989 121.066 30 997 bom main 139 139 P_____O__PP_P_ SH061977 -11.4000 121.042 32 -1 -11.4000 121.100 20 30 997 2.50000 -11.4000 121.042 TC 37 996 -11.4250 121.060 1 32 -11.3375 121.150 TC 35 997 2 152
1977006S11121 1977 2 SI WA IRENE 1977-01-06 12:00:00 TS -11.4870 121.113 35 995 bom main 149 149 O_____O__OO_O_ jtwc_sh SH061977 -11.5000 121.100 35 0 -11.5000 121.100 21 35 995 3.00000 -11.5000 121.100 TC 40 995 -11.5000 121.100 2 35 -11.4000 121.200 TC 35 996 2 148
1977006S11121 1977 2 SI WA IRENE 1977-01-06 15:00:00 TS -11.5375 121.156 40 994 bom main 154 154 P_____O__PP_P_ SH061977 -11.5500 121.143 40 0 -11.5000 121.100 21 40 994 3.00000 -11.5500 121.143 TC 40 994 -11.5750 121.157 2 38 -11.5000 121.250 TC 37 994 2 140
1977006S11121 1977 2 SI WA IRENE 1977-01-06 18:00:00 TS -11.6083 121.221 45 993 bom main 164 164 O_____O__OP_O_ jtwc_sh SH061977 -11.6000 121.200 45 0 -11.6000 121.200 21 45 993 3.00000 -11.6000 121.200 TC 40 993 -11.6500 121.228 2 42 -11.6000 121.300 TC 40 993 2 137
1977006S11121 1977 2 SI WA IRENE 1977-01-06 21:00:00 TS -11.6958 121.305 45 992 bom main 179 179 P_____O__PP_P_ SH061977 -11.7000 121.292 47 0 -11.7000 121.300 21 45 992 3.00000 -11.7000 121.292 TC 42 991 -11.7250 121.310 2 46 -11.6500 121.343 TC 42 992 2 134
1977006S11121 1977 2 SI WA IRENE 1977-01-07 00:00:00 TS -11.7833 121.400 50 990 bom main 194 194 O_____O__OO_O_ jtwc_sh SH061977 -11.8000 121.400 50 0 -11.8000 121.400 21 50 990 3.50000 -11.8000 121.400 TC 45 990 -11.8000 121.400 2 50 -11.7000 121.400 TC 45 991 2 128
1977006S11121 1977 2 SI WA IRENE 1977-01-07 03:00:00 TS -11.8341 121.486 50 989 bom main 199 199 P_____O__PP_P_ SH061977 -11.8500 121.500 52 0 -11.8000 121.500 21 50 989 3.50000 -11.8500 121.500 TC 47 989 -11.8543 121.424 2 52 -11.8000 121.492 TC 47 989 2 125
1977006S11121 1977 2 SI WA IRENE 1977-01-07 06:00:00 TS -11.9020 121.578 50 988 bom main 214 214 O_____O__OP_O_ jtwc_sh SH061977 -11.9000 121.600 55 0 -11.9000 121.600 21 50 988 3.50000 -11.9000 121.600 TC 50 988 -11.9118 121.466 2 55 -11.9000 121.600 TC 50 988 2 133
1977006S11121 1977 2 SI WA IRENE 1977-01-07 09:00:00 TS -11.9759 121.642 55 986 bom main 224 224 P_____O__PP_P_ SH061977 -11.9773 121.640 57 0 -12.0000 121.700 21 55 986 4.00000 -11.9773 121.640 TC 52 986 -11.9885 121.574 2 57 -11.9349 121.655 TC 52 986 3 130
1977006S11121 1977 2 SI WA IRENE 1977-01-07 12:00:00 TS -12.0833 121.800 55 984 bom main 244 244 O_____O__OO_O_ jtwc_sh SH061977 -12.1000 121.800 60 0 -12.1000 121.800 21 55 984 4.00000 -12.1000 121.800 TC 55 984 -12.1000 121.800 2 60 -12.0000 121.800 TC 55 985 7 117
1977006S11121 1977 2 SI WA IRENE 1977-01-07 15:00:00 TS -12.2697 122.234 60 982 bom main 255 240 P_____O__PP_P_ SH061977 -12.2851 122.232 62 0 -12.3000 122.300 21 60 982 4.00000 -12.2851 122.232 TC 57 982 -12.2855 122.267 2 62 -12.1775 122.140 TC 57 983 10 113
1977006S11121 1977 2 SI WA IRENE 1977-01-07 18:00:00 TS -12.4836 122.774 60 980 bom main 247 244 O_____O__OP_O_ jtwc_sh SH061977 -12.5000 122.800 65 1 -12.5000 122.800 21 60 980 4.00000 -12.5000 122.800 TC 60 980 -12.5017 122.841 2 65 -12.4000 122.600 TC 60 981 12 112
1977006S11121 1977 2 SI WA IRENE 1977-01-07 21:00:00 TS -12.6963 123.343 65 978 bom main 258 243 P_____O__PP_P_ SH061977 -12.7152 123.410 67 1 -12.7000 123.300 40 65 978 4.50000 -12.7152 123.402 TC 62 977 -12.7168 123.420 2 67 -12.6151 123.115 TC 62 978 11 111
1977006S11121 1977 2 SI WA IRENE 1977-01-08 00:00:00 TS -12.8833 123.850 70 975 bom main 236 214 O_____O__OO_O_ jtwc_sh SH061977 -12.9000 123.900 70 1 -12.9000 123.900 40 70 975 4.50000 -12.9000 123.900 TC 65 975 -12.9000 123.900 4 70 -12.8000 123.600 TC 65 976 8 113
1977006S11121 1977 2 SI WA IRENE 1977-01-08 03:00:00 TS -12.9994 124.073 70 975 bom main 214 199 P_____O__PP_P_ SH061977 -13.0223 124.060 72 1 -13.0000 124.100 40 70 975 4.50000 -13.0223 124.118 TC 65 974 -13.0143 124.140 4 71 -12.9149 123.960 TC 67 975 4 122
1977006S11121 1977 2 SI WA IRENE 1977-01-08 06:00:00 TS -13.0824 124.178 70 974 bom main 199 194 O_____O__OP_O_ jtwc_sh SH061977 -13.1000 124.100 75 1 -13.1000 124.200 40 70 974 4.50000 -13.1000 124.200 TC 65 974 -13.0942 124.271 4 72 -13.0000 124.200 TC 70 974 3 123
1977006S11121 1977 2 SI WA IRENE 1977-01-08 09:00:00 TS -13.1412 124.294 70 974 bom main 194 178 P_____O__PP_P_ SH061977 -13.1575 124.250 75 1 -13.1000 124.300 40 70 974 4.50000 -13.1650 124.300 TC 67 973 -13.1520 124.340 4 73 -13.1149 124.323 TC 70 973 2 118
1977006S11121 1977 2 SI WA IRENE 1977-01-08 12:00:00 TS -13.2000 124.400 75 973 bom main 178 171 O_____O__OO_O_ jtwc_sh SH061977 -13.2000 124.400 75 1 -13.2000 124.400 40 75 973 4.50000 -13.2000 124.400 TC 70 973 -13.2000 124.400 4 75 -13.2000 124.400 TC 70 973 2 110
1977006S11121 1977 2 SI WA IRENE 1977-01-08 15:00:00 TS -13.2248 124.529 75 972 bom main 171 156 P_____O__PP_P_ SH061977 -13.2500 124.500 77 1 -13.2000 124.500 40 75 972 4.50000 -13.1925 124.550 TC 70 972 -13.2491 124.574 4 77 -13.2075 124.550 TC 72 972 3 100
1977006S11121 1977 2 SI WA IRENE 1977-01-08 18:00:00 TS -13.2488 124.673 80 971 bom main 156 141 O_____O__OP_O_ jtwc_sh SH061977 -13.3000 124.600 80 1 -13.2000 124.700 40 80 971 5.00000 -13.2000 124.700 TC 70 971 -13.2925 124.740 4 80 -13.2000 124.700 TC 75 971 3 107
1977006S11121 1977 2 SI WA IRENE 1977-01-08 21:00:00 TS -13.3075 124.816 80 970 bom main 141 125 P_____O__PP_P_ SH061977 -13.3425 124.772 82 1 -13.3000 124.800 40 80 970 5.00000 -13.2850 124.852 TC 70 970 -13.3397 124.861 4 82 -13.2350 124.837 TC 75 970 3 121
1977006S11121 1977 2 SI WA IRENE 1977-01-09 00:00:00 TS -13.3833 124.900 80 970 bom main 125 117 O_____O__OO_O_ jtwc_sh SH061977 -13.4000 124.900 85 2 -13.4000 124.900 40 80 970 5.00000 -13.4000 124.900 TC 70 970 -13.4000 124.900 4 85 -13.3000 124.900 TC 75 970 2 0
1977006S11121 1977 2 SI WA IRENE 1977-01-09 03:00:00 TS -13.4771 124.829 80 970 bom main 124 124 P_____O__PP_P_ SH061977 -13.4924 124.917 85 2 -13.5000 124.700 40 80 970 5.00000 -13.5001 124.738 TC 70 970 -13.4853 124.864 4 85 -13.3925 124.838 TC 75 970 3 228
1977006S11121 1977 2 SI WA IRENE 1977-01-09 06:00:00 TS -13.5807 124.673 80 970 bom main 124 124 O_____O__OP_O_ jtwc_sh SH061977 -13.6000 124.800 85 2 -13.6000 124.500 40 80 970 5.00000 -13.6000 124.500 TC 70 970 -13.5844 124.737 4 85 -13.5000 124.700 TC 75 971 4 238
1977006S11121 1977 2 SI WA IRENE 1977-01-09 09:00:00 TS -13.6818 124.490 80 970 bom main 125 125 P_____O__PP_P_ SH061977 -13.6999 124.567 85 2 -13.7000 124.300 40 80 970 5.00000 -13.6998 124.395 TC 70 970 -13.6913 124.517 4 85 -13.5999 124.595 TC 72 972 5 245
1977006S11121 1977 2 SI WA IRENE 1977-01-09 12:00:00 TS -13.7833 124.233 80 970 bom main 140 140 O_____O__OO_O_ jtwc_sh SH061977 -13.8000 124.200 85 2 -13.8000 124.200 40 80 970 5.00000 -13.8000 124.200 TC 70 970 -13.8000 124.200 4 85 -13.7000 124.400 TC 70 974 7 253
1977006S11121 1977 2 SI WA IRENE 1977-01-09 15:00:00 TS -13.8835 123.790 80 970 bom main 170 170 P_____O__PP_P_ SH061977 -13.9001 123.730 85 2 -13.9000 123.700 40 80 970 5.00000 -13.9001 123.753 TC 70 970 -13.9006 123.777 4 85 -13.8000 124.052 TC 67 975 10 258
1977006S11121 1977 2 SI WA IRENE 1977-01-09 18:00:00 TS -13.9835 123.278 80 970 bom main 210 210 O_____O__OP_O_ jtwc_sh SH061977 -14.0000 123.200 85 2 -14.0000 123.200 40 80 970 5.00000 -14.0000 123.200 TC 70 970 -14.0009 123.268 4 85 -13.9000 123.600 TC 65 976 10 259
1977006S11121 1977 2 SI WA IRENE 1977-01-09 21:00:00 TS -14.0834 122.763 80 970 bom main 240 240 P_____O__PP_P_ SH061977 -14.1000 122.685 85 2 -14.1000 122.700 40 80 970 5.00000 -14.1000 122.685 TC 70 970 -14.1006 122.724 4 85 -14.0001 123.100 TC 65 977 10 258
1977006S11121 1977 2 SI WA IRENE 1977-01-10 00:00:00 TS -14.1833 122.267 80 970 bom main 265 264 O_____O__OO_O_ jtwc_sh SH061977 -14.2000 122.200 85 2 -14.2000 122.200 40 80 970 5.00000 -14.2000 122.200 TC 70 970 -14.2000 122.200 4 85 -14.1000 122.600 TC 65 979 9 257
1977006S11121 1977 2 SI WA IRENE 1977-01-10 03:00:00 TS -14.2798 121.852 80 970 bom main 268 268 P_____O__PP_P_ SH061977 -14.2999 121.785 85 2 -14.3000 121.800 40 80 970 5.00000 -14.2999 121.785 TC 70 971 -14.2792 121.771 4 83 -14.1999 122.185 TC 62 980 8 256
1977006S11121 1977 2 SI WA IRENE 1977-01-10 06:00:00 TS -14.3770 121.462 80 972 bom main 278 278 O_____O__OP_O_ jtwc_sh SH061977 -14.4000 121.400 85 2 -14.4000 121.400 40 80 972 5.00000 -14.4000 121.400 TC 70 972 -14.3619 121.369 4 82 -14.3000 121.800 TC 60 981 8 257
1977006S11121 1977 2 SI WA IRENE 1977-01-10 08:00:00 TS -14.4249 121.207 75 bom main 297 295 P_____I__PP_P_ SH061977 -14.4557 121.133 83 2 -14.4000 121.200 40 75 973 4.50000 -14.4557 121.133 TC 68 973 -14.4267 121.111 4 81 -14.3557 121.533 TC 58 982 8 257
1977006S11121 1977 2 SI WA IRENE 1977-01-10 09:00:00 TS -14.4672 121.064 70 974 bom main 295 295 P_____O__PP_P_ SH061977 -14.4849 121.000 82 1 -14.5000 121.000 40 70 974 4.50000 -14.4849 121.000 TC 67 974 -14.4637 120.983 4 81 -14.3849 121.400 TC 57 982 8 253
1977006S11121 1977 2 SI WA IRENE 1977-01-10 12:00:00 TS -14.5833 120.667 65 976 bom main 317 317 O_____O__OO_O_ jtwc_sh SH061977 -14.6000 120.600 80 1 -14.6000 120.600 40 65 976 4.50000 -14.6000 120.600 TC 65 976 -14.6000 120.600 4 80 -14.5000 121.000 TC 55 984 8 249
1977006S11121 1977 2 SI WA IRENE 1977-01-10 15:00:00 TS -14.7684 120.265 65 978 bom main 332 332 P_____O__PP_P_ SH061977 -14.7774 120.200 77 1 -14.8000 120.200 40 65 978 4.50000 -14.7774 120.200 TC 62 978 -14.7931 120.188 4 77 -14.6849 120.600 TC 55 985 9 243
1977006S11121 1977 2 SI WA IRENE 1977-01-10 18:00:00 TS -14.9867 119.863 60 980 bom main 347 347 O_____O__OP_O_ jtwc_sh SH061977 -15.0000 119.800 75 1 -15.0000 119.800 30 60 980 4.00000 -15.0000 119.800 TC 60 980 -15.0199 119.778 4 75 -14.9000 120.200 TC 55 986 9 239
1977006S11121 1977 2 SI WA IRENE 1977-01-10 21:00:00 TS -15.2328 119.457 60 982 bom main 367 367 P_____O__PP_P_ SH061977 -15.2500 119.393 72 1 -15.3000 119.400 30 60 982 4.00000 -15.2425 119.385 TC 57 982 -15.2618 119.379 4 72 -15.0925 119.792 TC 52 987 9 238
1977006S11121 1977 2 SI WA IRENE 1977-01-11 00:00:00 TS -15.4667 119.067 55 985 bom main 385 385 O_____O__OO_O_ jtwc_sh SH061977 -15.5000 119.000 70 1 -15.5000 119.000 30 55 985 4.00000 -15.5000 119.000 TC 55 985 -15.5000 119.000 4 70 -15.3000 119.400 TC 50 989 8 237
1977006S11121 1977 2 SI WA IRENE 1977-01-11 03:00:00 TS -15.6894 118.726 55 986 bom main 413 413 P_____O__PP_P_ SH061977 -15.7074 118.635 67 1 -15.7000 118.700 30 55 986 4.00000 -15.7649 118.692 TC 52 986 -15.7069 118.649 4 67 -15.5499 119.042 TC 47 990 8 235
1977006S11121 1977 2 SI WA IRENE 1977-01-11 06:00:00 TS -15.9179 118.403 50 987 bom main 434 434 O_____O__OP_O_ jtwc_sh SH061977 -15.9000 118.300 65 1 -16.0000 118.400 30 50 987 3.50000 -16.0000 118.400 TC 50 987 -15.9071 118.320 4 65 -15.8000 118.700 TC 45 991 8 238
1977006S11121 1977 2 SI WA IRENE 1977-01-11 09:00:00 TS -16.0948 118.064 50 988 bom main 456 446 P_____O__PP_P_ SH061977 -16.0999 117.992 62 0 -16.1000 118.000 30 50 988 3.50000 -16.1575 118.050 TC 47 988 -16.1038 118.005 4 62 -16.0075 118.342 TC 42 992 7 240
1977006S11121 1977 2 SI WA IRENE 1977-01-11 12:00:00 TS -16.2833 117.750 50 990 bom main 446 436 O_____O__OO_O_ jtwc_sh SH061977 -16.3000 117.700 60 0 -16.3000 117.700 30 50 990 3.50000 -16.3000 117.700 TC 45 990 -16.3000 117.700 2 60 -16.2000 118.000 TC 40 994 7 236
1977006S11121 1977 2 SI WA IRENE 1977-01-11 15:00:00 TS -16.4861 117.448 50 991 bom main 440 424 P_____O__PP_P_ SH061977 -16.5000 117.400 55 0 -16.5000 117.400 30 50 991 3.50000 -16.4924 117.392 TC 42 991 -16.5241 117.405 2 55 -16.3999 117.692 TC 37 995 7 235
1977006S11121 1977 2 SI WA IRENE 1977-01-11 18:00:00 TS -16.6908 117.153 45 993 bom main 424 411 O_____O__OP_O_ jtwc_sh SH061977 -16.7000 117.100 50 0 -16.7000 117.100 30 45 993 3.00000 -16.7000 117.100 TC 40 993 -16.7445 117.115 2 50 -16.6000 117.400 TC 35 996 7 236
1977006S11121 1977 2 SI WA IRENE 1977-01-11 21:00:00 TS -16.9017 116.809 40 994 bom main 413 391 P_____O__PP_P_ SH061977 -16.9149 116.807 45 0 -16.9000 116.500 30 40 994 3.00000 -16.9224 116.815 TC 40 994 -16.9428 116.818 2 45 -16.8149 117.108 TC 32 997 7 236
1977006S11121 1977 2 SI WA IRENE 1977-01-12 00:00:00 TS -17.0833 116.550 40 995 bom main 391 382 O_____O__OO_O_ jtwc_sh SH061977 -17.1000 116.500 40 0 -17.1000 116.500 30 40 995 3.00000 -17.1000 116.500 TC 40 995 -17.1000 116.500 2 40 -17.0000 116.800 TC 30 999 6 245
1977006S11121 1977 2 SI WA IRENE 1977-01-12 03:00:00 TS -17.1779 116.198 40 997 bom main 383 383 P_____O__PP_P_ SH061977 -17.2299 116.165 40 0 -17.1000 116.100 30 40 997 3.00000 -17.1725 116.107 TC 37 996 -17.2128 116.187 2 40 -17.1224 116.465 TC 30 999 7 257
1977006S11121 1977 2 SI WA IRENE 1977-01-12 06:00:00 TS -17.2469 115.825 35 998 bom main 391 381 O_____O__OP_O_ jtwc_sh SH061977 -17.3000 115.800 40 0 -17.2000 115.700 30 35 998 3.00000 -17.2000 115.700 TC 35 998 -17.2814 115.847 2 40 -17.2000 116.100 TC 30 1000 7 262
1977006S11121 1977 2 SI WA IRENE 1977-01-12 09:00:00 TS -17.2818 115.454 30 1000 bom main 390 390 P_____O__PP_P_ SH061977 -17.3223 115.430 40 0 -17.2000 115.300 20 30 1000 2.50000 -17.2647 115.380 TC 32 999 -17.3094 115.459 2 40 -17.2724 115.723 TC 30 1000 7 266
1977006S11121 1977 2 SI WA IRENE 1977-01-12 12:00:00 TS -17.3000 115.050 30 1001 bom main 405 405 O_____O__OO_O_ jtwc_sh SH061977 -17.3000 115.000 40 0 -17.3000 115.000 20 30 1001 2.50000 -17.3000 115.000 TC 30 1001 -17.3000 115.000 2 40 -17.3000 115.300 TC 30 1000 9 271
1977006S11121 1977 2 SI WA IRENE 1977-01-12 15:00:00 TS -17.2707 114.521 30 1002 bom main 435 435 P_____O__PP_P_ SH061977 -17.2648 114.495 40 0 -17.3000 114.400 20 30 1002 2.50000 -17.2725 114.445 TC 27 1002 -17.2571 114.456 2 38 -17.2648 114.837 TC 27 1000 11 275
1977006S11121 1977 2 SI WA IRENE 1977-01-12 18:00:00 TS -17.1979 113.924 25 1003 bom main 479 479 O_____O__OP_O_ jtwc_sh SH061977 -17.2000 113.900 40 0 -17.2000 113.800 20 25 1003 2.00000 -17.2000 113.800 TC 25 1003 -17.1875 113.842 2 37 -17.2000 114.300 TC 25 1001 12 278
1977006S11121 1977 2 SI WA IRENE 1977-01-12 21:00:00 TS -17.1110 113.275 25 1004 bom main 523 523 P_____O__PP_P_ SH061977 -17.1081 113.222 37 0 -17.1000 113.200 20 25 1004 2.00000 -17.1053 113.147 TC 22 1004 -17.0991 113.182 2 36 -17.1455 113.675 TC 25 1001 13 278
1977006S11121 1977 2 SI WA IRENE 1977-01-13 00:00:00 TS -17.0167 112.583 25 1005 bom main 567 O_____O__OO_O_ jtwc_sh SH061977 -17.0000 112.500 35 0 -17.0000 112.500 20 25 1005 1.50000 -17.0000 112.500 TC 20 1005 -17.0000 112.500 2 35 -17.1000 113.000 TC 25 1001 13 278

About IBTrACS Database

This database is a web-friendly format of International Best Track Archive for Climate Stewardship (IBTrACS), a global best track data archive curated by NOAA dating back to 1842.

Updated: 2021-11-26